메인 페이지
METAR-TAF:

METAR-TAF

공항 :

Edward F. Knapp State Airport

Barre / 몬트필리어, 버몬트, 미국

위도: 44-12-17N, 경도: 072-33-58W, 고도: 355m

현재 날씨관측

예보는 58분 전, 23:51시(UTC)에 발표되었습니다.
북서6kt
온도 -2°C
습도 86%
기압 1010 hPa
시정: 14.5km
고도 1800ft 상공 흐림

METAR: KMPV 032351Z AUTO 32006KT 9SM OVC018 M02/M04 A2982 RMK AO2 SNB04E17 SLP118 P0000 60000 T10221044 11022 21028 53011

시각: 19:49 (00:49 UTC)

예보

예보는 1 시간 14분 전, 23:35시(UTC)에 발표되었습니다.
예보 대상 시간: 04일 00시부터 04일 24시까지 (UTC)
여러 방향의 바람 4kt
시정: 10km
고도 2000ft 상공 흐림
시계 내 소나기
04일 0800시부터 (UTC)
북서6kt
시정: 10km
고도 4000ft 상공 구름 많음
04일 1200시부터 (UTC)
북서7kt
시정: 10km
맑음
04일 1700시부터 (UTC)
서북서13kt, 순간 최대 풍속 20kt
시정: 10km
고도 12000ft 상공 구름 조금

TAF: KMPV 032335Z 0400/0424 VRB04KT P6SM VCSH OVC020 FM040800 31006KT P6SM BKN040 FM041200 32007KT P6SM SKC FM041700 30013G20KT P6SM FEW120

4,000개 이상의 공항 관측 자료 및 예보 (METAR 및 TAF 보고).

지도상에서 검색 가능한 기상관측소가 노란 점과 빨간 점으로 표시되어 있습니다.

기상관측소 명을 보려면 표시 위로 마우스를 이동하세요.

날씨 관측과 예보를 보려면 클릭하세요.

지도 변경 : 확대하려면 엑스 표시가 있는 녹색 버튼, 축소하려면 빼기 표시가 있는 녹색 버튼, 다음 페이지의 지도를 보려면 녹색 화살표를 클릭하세요.


METAR-TAF: